Iota, Louisiana
Current Conditions -  °F | °C
As of 11:55 AM on Friday 31 Oct 2014 (Local Time) from K3R7 Reporting Station
Clear Clear  
Wind Chill: 71°   Ceiling: Unl
Heat Index: 71°   Visibility: 10mi
Dew Point: 46°   Wind: 13mph
Humidity: 41%   Direction: 350°N
Pressure: 30.13"   Gusts: 17mph
Location:  30.33°N, 92.5°W
Report Text: K3R7 311655Z AUTO 35011G15KT 10SM CLR 22/08 A3013 RMK AO2 T02150076
Loading
Personal Weather Stations






























Interactive Weather Map
Tropical Storm Tracking
New forecast layout! Learn more

10-Day Weather Forecast

Advertisements
Track Severe Weather on mobile